sensor_id;sensor_type;location;lat;lon;timestamp;temperature;humidity
3550;DHT22;45572;48.804;8.330;2023-04-01T00:00:30;11.10;83.00
3550;DHT22;45572;48.804;8.330;2023-04-01T00:02:58;11.10;83.20
3550;DHT22;45572;48.804;8.330;2023-04-01T00:05:27;11.10;83.20
3550;DHT22;45572;48.804;8.330;2023-04-01T00:07:54;11.10;83.20
3550;DHT22;45572;48.804;8.330;2023-04-01T00:10:22;11.20;83.20
3550;DHT22;45572;48.804;8.330;2023-04-01T00:12:51;11.10;83.30
3550;DHT22;45572;48.804;8.330;2023-04-01T00:15:20;11.20;83.30
3550;DHT22;45572;48.804;8.330;2023-04-01T00:17:47;11.10;83.80
3550;DHT22;45572;48.804;8.330;2023-04-01T00:20:16;11.10;83.70
3550;DHT22;45572;48.804;8.330;2023-04-01T00:22:43;11.10;83.90
3550;DHT22;45572;48.804;8.330;2023-04-01T00:25:11;11.10;83.70
3550;DHT22;45572;48.804;8.330;2023-04-01T00:27:39;11.10;84.10
3550;DHT22;45572;48.804;8.330;2023-04-01T00:30:09;11.10;83.90
3550;DHT22;45572;48.804;8.330;2023-04-01T00:32:37;11.20;84.10
3550;DHT22;45572;48.804;8.330;2023-04-01T00:35:05;11.10;84.30
3550;DHT22;45572;48.804;8.330;2023-04-01T00:37:35;11.10;83.80
3550;DHT22;45572;48.804;8.330;2023-04-01T00:40:04;11.10;83.90
3550;DHT22;45572;48.804;8.330;2023-04-01T00:42:33;11.10;84.00
3550;DHT22;45572;48.804;8.330;2023-04-01T00:45:26;11.10;83.90
3550;DHT22;45572;48.804;8.330;2023-04-01T00:47:55;11.10;83.50
3550;DHT22;45572;48.804;8.330;2023-04-01T00:50:25;11.10;83.90
3550;DHT22;45572;48.804;8.330;2023-04-01T00:52:54;11.20;84.20
3550;DHT22;45572;48.804;8.330;2023-04-01T00:55:23;11.20;84.10
3550;DHT22;45572;48.804;8.330;2023-04-01T00:57:52;11.20;83.60
3550;DHT22;45572;48.804;8.330;2023-04-01T01:00:20;11.20;83.60
3550;DHT22;45572;48.804;8.330;2023-04-01T01:02:50;11.10;83.70
3550;DHT22;45572;48.804;8.330;2023-04-01T01:05:22;11.10;84.00
3550;DHT22;45572;48.804;8.330;2023-04-01T01:08:00;11.10;84.10
3550;DHT22;45572;48.804;8.330;2023-04-01T01:10:33;11.10;84.40
3550;DHT22;45572;48.804;8.330;2023-04-01T01:13:09;11.00;84.10
3550;DHT22;45572;48.804;8.330;2023-04-01T01:15:44;11.00;83.90
3550;DHT22;45572;48.804;8.330;2023-04-01T01:18:19;11.00;84.20
3550;DHT22;45572;48.804;8.330;2023-04-01T01:21:01;10.90;84.30
3550;DHT22;45572;48.804;8.330;2023-04-01T01:23:49;10.90;84.60
3550;DHT22;45572;48.804;8.330;2023-04-01T01:26:36;10.90;84.50
3550;DHT22;45572;48.804;8.330;2023-04-01T01:29:16;10.80;84.10
3550;DHT22;45572;48.804;8.330;2023-04-01T01:31:53;10.90;84.20
3550;DHT22;45572;48.804;8.330;2023-04-01T01:34:24;10.90;84.20
3550;DHT22;45572;48.804;8.330;2023-04-01T01:37:00;10.80;84.10
3550;DHT22;45572;48.804;8.330;2023-04-01T01:39:31;10.90;84.30
3550;DHT22;45572;48.804;8.330;2023-04-01T01:42:04;10.90;83.40
3550;DHT22;45572;48.804;8.330;2023-04-01T01:44:33;10.90;83.20
3550;DHT22;45572;48.804;8.330;2023-04-01T01:47:02;10.90;82.70
3550;DHT22;45572;48.804;8.330;2023-04-01T01:49:32;10.90;82.90
3550;DHT22;45572;48.804;8.330;2023-04-01T01:52:02;10.90;82.70
3550;DHT22;45572;48.804;8.330;2023-04-01T01:54:30;10.80;82.80
3550;DHT22;45572;48.804;8.330;2023-04-01T01:57:03;10.90;82.70
3550;DHT22;45572;48.804;8.330;2023-04-01T01:59:34;10.90;82.50
3550;DHT22;45572;48.804;8.330;2023-04-01T02:02:04;10.90;83.30
3550;DHT22;45572;48.804;8.330;2023-04-01T02:04:37;10.90;83.10
3550;DHT22;45572;48.804;8.330;2023-04-01T02:07:10;10.80;84.70
3550;DHT22;45572;48.804;8.330;2023-04-01T02:09:40;10.60;85.90
3550;DHT22;45572;48.804;8.330;2023-04-01T02:12:09;10.50;86.70
3550;DHT22;45572;48.804;8.330;2023-04-01T02:14:44;10.40;87.00
3550;DHT22;45572;48.804;8.330;2023-04-01T02:17:15;10.30;87.10
3550;DHT22;45572;48.804;8.330;2023-04-01T02:19:48;10.30;86.70
3550;DHT22;45572;48.804;8.330;2023-04-01T02:22:22;10.30;86.60
3550;DHT22;45572;48.804;8.330;2023-04-01T02:24:53;10.30;86.50
3550;DHT22;45572;48.804;8.330;2023-04-01T02:27:22;10.30;85.60
3550;DHT22;45572;48.804;8.330;2023-04-01T02:29:50;10.30;85.40
3550;DHT22;45572;48.804;8.330;2023-04-01T02:32:19;10.40;85.00
3550;DHT22;45572;48.804;8.330;2023-04-01T02:34:48;10.50;84.70
3550;DHT22;45572;48.804;8.330;2023-04-01T02:37:16;10.40;85.90
3550;DHT22;45572;48.804;8.330;2023-04-01T02:39:46;10.40;85.50
3550;DHT22;45572;48.804;8.330;2023-04-01T02:42:14;10.40;85.40
3550;DHT22;45572;48.804;8.330;2023-04-01T02:44:42;10.30;85.30
3550;DHT22;45572;48.804;8.330;2023-04-01T02:47:10;10.30;86.40
3550;DHT22;45572;48.804;8.330;2023-04-01T02:49:38;10.30;86.60
3550;DHT22;45572;48.804;8.330;2023-04-01T02:52:05;10.30;86.40
3550;DHT22;45572;48.804;8.330;2023-04-01T02:54:33;10.30;85.70
3550;DHT22;45572;48.804;8.330;2023-04-01T02:57:02;10.30;85.10
3550;DHT22;45572;48.804;8.330;2023-04-01T02:59:30;10.30;85.50
3550;DHT22;45572;48.804;8.330;2023-04-01T03:01:58;10.30;85.50
3550;DHT22;45572;48.804;8.330;2023-04-01T03:04:26;10.30;85.20
3550;DHT22;45572;48.804;8.330;2023-04-01T03:06:54;10.30;85.70
3550;DHT22;45572;48.804;8.330;2023-04-01T03:09:21;10.30;85.00
3550;DHT22;45572;48.804;8.330;2023-04-01T03:11:49;10.40;83.60
3550;DHT22;45572;48.804;8.330;2023-04-01T03:14:19;10.40;83.60
3550;DHT22;45572;48.804;8.330;2023-04-01T03:16:46;10.50;83.60
3550;DHT22;45572;48.804;8.330;2023-04-01T03:19:15;10.50;83.90
3550;DHT22;45572;48.804;8.330;2023-04-01T03:21:43;10.50;83.40
3550;DHT22;45572;48.804;8.330;2023-04-01T03:24:10;10.60;83.70
3550;DHT22;45572;48.804;8.330;2023-04-01T03:26:38;10.60;83.60
3550;DHT22;45572;48.804;8.330;2023-04-01T03:29:06;10.60;83.10
3550;DHT22;45572;48.804;8.330;2023-04-01T03:31:35;10.70;83.10
3550;DHT22;45572;48.804;8.330;2023-04-01T03:34:03;10.70;82.80
3550;DHT22;45572;48.804;8.330;2023-04-01T03:36:31;10.70;83.00
3550;DHT22;45572;48.804;8.330;2023-04-01T03:38:59;10.70;82.90
3550;DHT22;45572;48.804;8.330;2023-04-01T03:41:36;10.70;82.90
3550;DHT22;45572;48.804;8.330;2023-04-01T03:44:05;10.70;83.00
3550;DHT22;45572;48.804;8.330;2023-04-01T03:46:34;10.70;83.30
3550;DHT22;45572;48.804;8.330;2023-04-01T03:49:05;10.70;83.00
3550;DHT22;45572;48.804;8.330;2023-04-01T03:51:37;10.70;83.00
3550;DHT22;45572;48.804;8.330;2023-04-01T03:54:06;10.80;82.80
3550;DHT22;45572;48.804;8.330;2023-04-01T03:56:34;10.80;82.50
3550;DHT22;45572;48.804;8.330;2023-04-01T03:59:03;10.80;82.70
3550;DHT22;45572;48.804;8.330;2023-04-01T04:01:31;10.80;82.80
3550;DHT22;45572;48.804;8.330;2023-04-01T04:04:01;10.80;82.40
3550;DHT22;45572;48.804;8.330;2023-04-01T04:06:29;10.80;82.50
3550;DHT22;45572;48.804;8.330;2023-04-01T04:08:57;10.80;82.30
3550;DHT22;45572;48.804;8.330;2023-04-01T04:11:25;10.80;82.30
3550;DHT22;45572;48.804;8.330;2023-04-01T04:13:53;10.80;82.40
3550;DHT22;45572;48.804;8.330;2023-04-01T04:16:23;10.80;82.60
3550;DHT22;45572;48.804;8.330;2023-04-01T04:18:57;10.80;82.10
3550;DHT22;45572;48.804;8.330;2023-04-01T04:21:26;10.90;82.50
3550;DHT22;45572;48.804;8.330;2023-04-01T04:23:54;10.80;82.50
3550;DHT22;45572;48.804;8.330;2023-04-01T04:26:22;10.80;82.20
3550;DHT22;45572;48.804;8.330;2023-04-01T04:28:56;10.80;81.50
3550;DHT22;45572;48.804;8.330;2023-04-01T04:31:25;10.80;81.60
3550;DHT22;45572;48.804;8.330;2023-04-01T04:33:56;10.80;81.90
3550;DHT22;45572;48.804;8.330;2023-04-01T04:36:25;10.70;83.20
3550;DHT22;45572;48.804;8.330;2023-04-01T04:38:54;10.70;83.10
3550;DHT22;45572;48.804;8.330;2023-04-01T04:41:22;10.70;82.90
3550;DHT22;45572;48.804;8.330;2023-04-01T04:43:52;10.70;82.60
3550;DHT22;45572;48.804;8.330;2023-04-01T04:46:21;10.70;81.60
3550;DHT22;45572;48.804;8.330;2023-04-01T04:48:56;10.80;81.60
3550;DHT22;45572;48.804;8.330;2023-04-01T04:51:26;10.80;81.70
3550;DHT22;45572;48.804;8.330;2023-04-01T04:53:54;10.80;81.90
3550;DHT22;45572;48.804;8.330;2023-04-01T04:56:32;10.80;81.40
3550;DHT22;45572;48.804;8.330;2023-04-01T04:59:06;10.80;81.60
3550;DHT22;45572;48.804;8.330;2023-04-01T05:01:47;10.80;81.30
3550;DHT22;45572;48.804;8.330;2023-04-01T05:04:15;10.80;81.50
3550;DHT22;45572;48.804;8.330;2023-04-01T05:06:44;10.80;81.40
3550;DHT22;45572;48.804;8.330;2023-04-01T05:09:13;10.80;81.30
3550;DHT22;45572;48.804;8.330;2023-04-01T05:11:42;10.80;80.70
3550;DHT22;45572;48.804;8.330;2023-04-01T05:14:12;10.80;81.00
3550;DHT22;45572;48.804;8.330;2023-04-01T05:16:43;10.80;81.00
3550;DHT22;45572;48.804;8.330;2023-04-01T05:19:11;10.80;80.70
3550;DHT22;45572;48.804;8.330;2023-04-01T05:21:38;10.80;80.50
3550;DHT22;45572;48.804;8.330;2023-04-01T05:24:08;10.90;81.20
3550;DHT22;45572;48.804;8.330;2023-04-01T05:26:37;10.80;80.20
3550;DHT22;45572;48.804;8.330;2023-04-01T05:29:05;10.90;80.20
3550;DHT22;45572;48.804;8.330;2023-04-01T05:31:33;10.80;80.30
3550;DHT22;45572;48.804;8.330;2023-04-01T05:34:02;10.80;81.00
3550;DHT22;45572;48.804;8.330;2023-04-01T05:36:30;10.80;81.20
3550;DHT22;45572;48.804;8.330;2023-04-01T05:38:58;10.70;82.50
3550;DHT22;45572;48.804;8.330;2023-04-01T05:41:29;10.60;83.30
3550;DHT22;45572;48.804;8.330;2023-04-01T05:43:57;10.50;84.10
3550;DHT22;45572;48.804;8.330;2023-04-01T05:46:44;10.40;85.70
3550;DHT22;45572;48.804;8.330;2023-04-01T05:49:17;10.20;86.40
3550;DHT22;45572;48.804;8.330;2023-04-01T05:51:46;10.00;87.10
3550;DHT22;45572;48.804;8.330;2023-04-01T05:54:14;10.00;87.50
3550;DHT22;45572;48.804;8.330;2023-04-01T05:56:45;9.90;88.50
3550;DHT22;45572;48.804;8.330;2023-04-01T05:59:14;9.80;89.80
3550;DHT22;45572;48.804;8.330;2023-04-01T06:01:42;9.70;88.60
3550;DHT22;45572;48.804;8.330;2023-04-01T06:04:14;9.60;89.40
3550;DHT22;45572;48.804;8.330;2023-04-01T06:06:44;9.60;89.60
3550;DHT22;45572;48.804;8.330;2023-04-01T06:09:16;9.50;90.60
3550;DHT22;45572;48.804;8.330;2023-04-01T06:12:01;9.50;90.10
3550;DHT22;45572;48.804;8.330;2023-04-01T06:14:48;9.50;90.20
3550;DHT22;45572;48.804;8.330;2023-04-01T06:17:26;9.50;90.80
3550;DHT22;45572;48.804;8.330;2023-04-01T06:20:00;9.50;91.00
3550;DHT22;45572;48.804;8.330;2023-04-01T06:22:49;9.50;90.90
3550;DHT22;45572;48.804;8.330;2023-04-01T06:25:29;9.60;91.00
3550;DHT22;45572;48.804;8.330;2023-04-01T06:28:13;9.60;90.60
3550;DHT22;45572;48.804;8.330;2023-04-01T06:30:49;9.50;90.60
3550;DHT22;45572;48.804;8.330;2023-04-01T06:33:33;9.50;91.20
3550;DHT22;45572;48.804;8.330;2023-04-01T06:36:16;9.50;92.10
3550;DHT22;45572;48.804;8.330;2023-04-01T06:39:02;9.50;93.20
3550;DHT22;45572;48.804;8.330;2023-04-01T06:41:54;9.50;92.50
3550;DHT22;45572;48.804;8.330;2023-04-01T06:44:37;9.50;92.20
3550;DHT22;45572;48.804;8.330;2023-04-01T06:47:39;9.50;93.50
3550;DHT22;45572;48.804;8.330;2023-04-01T06:50:37;9.40;93.30
3550;DHT22;45572;48.804;8.330;2023-04-01T06:53:33;9.40;93.30
3550;DHT22;45572;48.804;8.330;2023-04-01T06:56:25;9.40;93.40
3550;DHT22;45572;48.804;8.330;2023-04-01T06:59:05;9.40;94.10
3550;DHT22;45572;48.804;8.330;2023-04-01T07:01:40;9.40;94.20
3550;DHT22;45572;48.804;8.330;2023-04-01T07:04:13;9.30;93.40
3550;DHT22;45572;48.804;8.330;2023-04-01T07:06:47;9.40;94.50
3550;DHT22;45572;48.804;8.330;2023-04-01T07:09:18;9.30;94.80
3550;DHT22;45572;48.804;8.330;2023-04-01T07:12:12;9.40;95.60
3550;DHT22;45572;48.804;8.330;2023-04-01T07:15:11;9.40;95.30
3550;DHT22;45572;48.804;8.330;2023-04-01T07:17:44;9.50;94.50
3550;DHT22;45572;48.804;8.330;2023-04-01T07:20:17;9.40;95.00
3550;DHT22;45572;48.804;8.330;2023-04-01T07:22:48;9.50;94.30
3550;DHT22;45572;48.804;8.330;2023-04-01T07:25:28;9.50;94.50
3550;DHT22;45572;48.804;8.330;2023-04-01T07:28:17;9.60;94.30
3550;DHT22;45572;48.804;8.330;2023-04-01T07:31:04;9.60;95.30
3550;DHT22;45572;48.804;8.330;2023-04-01T07:33:41;9.60;95.30
3550;DHT22;45572;48.804;8.330;2023-04-01T07:36:18;9.70;95.10
3550;DHT22;45572;48.804;8.330;2023-04-01T07:38:55;9.60;94.00
3550;DHT22;45572;48.804;8.330;2023-04-01T07:41:51;9.60;94.80
3550;DHT22;45572;48.804;8.330;2023-04-01T07:44:28;9.60;95.50
3550;DHT22;45572;48.804;8.330;2023-04-01T07:47:08;9.50;95.10
3550;DHT22;45572;48.804;8.330;2023-04-01T07:49:50;9.50;95.20
3550;DHT22;45572;48.804;8.330;2023-04-01T07:52:28;9.40;94.80
3550;DHT22;45572;48.804;8.330;2023-04-01T07:55:09;9.40;95.20
3550;DHT22;45572;48.804;8.330;2023-04-01T07:57:49;9.30;94.80
3550;DHT22;45572;48.804;8.330;2023-04-01T08:00:22;9.30;96.00
3550;DHT22;45572;48.804;8.330;2023-04-01T08:03:11;9.20;95.80
3550;DHT22;45572;48.804;8.330;2023-04-01T08:05:53;9.20;96.30
3550;DHT22;45572;48.804;8.330;2023-04-01T08:08:34;9.20;95.70
3550;DHT22;45572;48.804;8.330;2023-04-01T08:11:36;9.30;95.50
3550;DHT22;45572;48.804;8.330;2023-04-01T08:14:32;9.30;95.80
3550;DHT22;45572;48.804;8.330;2023-04-01T08:17:30;9.40;96.20
3550;DHT22;45572;48.804;8.330;2023-04-01T08:20:10;9.40;96.10
3550;DHT22;45572;48.804;8.330;2023-04-01T08:22:50;9.40;96.50
3550;DHT22;45572;48.804;8.330;2023-04-01T08:25:26;9.40;94.90
3550;DHT22;45572;48.804;8.330;2023-04-01T08:28:03;9.30;95.00
3550;DHT22;45572;48.804;8.330;2023-04-01T08:30:40;9.30;95.30
3550;DHT22;45572;48.804;8.330;2023-04-01T08:33:13;9.40;96.10
3550;DHT22;45572;48.804;8.330;2023-04-01T08:35:48;9.40;95.50
3550;DHT22;45572;48.804;8.330;2023-04-01T08:38:22;9.50;95.60
3550;DHT22;45572;48.804;8.330;2023-04-01T08:40:59;9.50;94.80
3550;DHT22;45572;48.804;8.330;2023-04-01T08:44:12;9.50;94.00
3550;DHT22;45572;48.804;8.330;2023-04-01T08:47:13;9.40;94.30
3550;DHT22;45572;48.804;8.330;2023-04-01T08:50:07;9.40;95.00
3550;DHT22;45572;48.804;8.330;2023-04-01T08:52:58;9.40;94.60
3550;DHT22;45572;48.804;8.330;2023-04-01T08:55:38;9.50;94.40
3550;DHT22;45572;48.804;8.330;2023-04-01T08:58:25;9.50;94.30
3550;DHT22;45572;48.804;8.330;2023-04-01T09:01:13;9.40;95.00
3550;DHT22;45572;48.804;8.330;2023-04-01T09:03:58;9.50;95.40
3550;DHT22;45572;48.804;8.330;2023-04-01T09:06:40;9.50;95.60
3550;DHT22;45572;48.804;8.330;2023-04-01T09:09:31;9.50;94.80
3550;DHT22;45572;48.804;8.330;2023-04-01T09:15:12;9.50;95.70
3550;DHT22;45572;48.804;8.330;2023-04-01T09:18:09;9.60;96.40
3550;DHT22;45572;48.804;8.330;2023-04-01T09:20:47;9.60;95.70
3550;DHT22;45572;48.804;8.330;2023-04-01T09:23:33;9.50;95.50
3550;DHT22;45572;48.804;8.330;2023-04-01T09:26:19;9.60;96.20
3550;DHT22;45572;48.804;8.330;2023-04-01T09:28:57;9.60;94.90
3550;DHT22;45572;48.804;8.330;2023-04-01T09:31:46;9.60;95.40
3550;DHT22;45572;48.804;8.330;2023-04-01T09:34:51;9.60;94.50
3550;DHT22;45572;48.804;8.330;2023-04-01T09:37:34;9.60;96.10
3550;DHT22;45572;48.804;8.330;2023-04-01T09:40:16;9.60;94.70
3550;DHT22;45572;48.804;8.330;2023-04-01T09:43:04;9.70;95.70
3550;DHT22;45572;48.804;8.330;2023-04-01T09:45:52;9.80;94.50
3550;DHT22;45572;48.804;8.330;2023-04-01T09:48:34;9.90;95.20
3550;DHT22;45572;48.804;8.330;2023-04-01T09:51:17;9.90;93.60
3550;DHT22;45572;48.804;8.330;2023-04-01T09:54:01;9.90;93.10
3550;DHT22;45572;48.804;8.330;2023-04-01T09:57:00;9.90;94.20
3550;DHT22;45572;48.804;8.330;2023-04-01T09:59:47;10.00;94.90
3550;DHT22;45572;48.804;8.330;2023-04-01T10:02:57;10.10;94.60
3550;DHT22;45572;48.804;8.330;2023-04-01T10:05:48;10.10;92.70
3550;DHT22;45572;48.804;8.330;2023-04-01T10:08:45;10.10;94.00
3550;DHT22;45572;48.804;8.330;2023-04-01T10:14:37;10.20;93.60
3550;DHT22;45572;48.804;8.330;2023-04-01T10:17:28;10.20;92.30
3550;DHT22;45572;48.804;8.330;2023-04-01T10:20:20;10.30;92.30
3550;DHT22;45572;48.804;8.330;2023-04-01T10:26:10;10.60;92.70
3550;DHT22;45572;48.804;8.330;2023-04-01T10:29:15;10.70;91.90
3550;DHT22;45572;48.804;8.330;2023-04-01T10:32:04;10.70;91.70
3550;DHT22;45572;48.804;8.330;2023-04-01T10:35:07;10.90;92.40
3550;DHT22;45572;48.804;8.330;2023-04-01T10:40:55;10.90;92.30
3550;DHT22;45572;48.804;8.330;2023-04-01T10:44:03;10.70;92.10
3550;DHT22;45572;48.804;8.330;2023-04-01T10:46:56;10.70;93.00
3550;DHT22;45572;48.804;8.330;2023-04-01T10:49:44;10.70;92.40
3550;DHT22;45572;48.804;8.330;2023-04-01T10:55:37;10.60;92.20
3550;DHT22;45572;48.804;8.330;2023-04-01T11:08:39;10.50;95.00
3550;DHT22;45572;48.804;8.330;2023-04-01T11:11:34;10.40;93.70
3550;DHT22;45572;48.804;8.330;2023-04-01T11:14:33;10.40;94.40
3550;DHT22;45572;48.804;8.330;2023-04-01T11:17:26;10.40;94.20
3550;DHT22;45572;48.804;8.330;2023-04-01T11:20:13;10.30;94.50
3550;DHT22;45572;48.804;8.330;2023-04-01T11:22:58;10.20;94.00
3550;DHT22;45572;48.804;8.330;2023-04-01T11:25:47;10.30;95.50
3550;DHT22;45572;48.804;8.330;2023-04-01T11:28:52;10.30;94.20
3550;DHT22;45572;48.804;8.330;2023-04-01T11:31:35;10.30;94.20
3550;DHT22;45572;48.804;8.330;2023-04-01T11:34:17;10.30;95.00
3550;DHT22;45572;48.804;8.330;2023-04-01T11:36:59;10.40;95.40
3550;DHT22;45572;48.804;8.330;2023-04-01T11:39:36;10.50;95.10
3550;DHT22;45572;48.804;8.330;2023-04-01T11:42:32;10.50;94.40
3550;DHT22;45572;48.804;8.330;2023-04-01T11:45:30;10.50;92.80
3550;DHT22;45572;48.804;8.330;2023-04-01T11:48:16;10.60;93.00
3550;DHT22;45572;48.804;8.330;2023-04-01T11:51:05;10.70;94.00
3550;DHT22;45572;48.804;8.330;2023-04-01T11:53:44;10.80;93.80
3550;DHT22;45572;48.804;8.330;2023-04-01T11:56:27;10.50;93.10
3550;DHT22;45572;48.804;8.330;2023-04-01T11:59:10;10.50;93.70
3550;DHT22;45572;48.804;8.330;2023-04-01T12:01:50;10.30;93.90
3550;DHT22;45572;48.804;8.330;2023-04-01T12:04:39;10.20;93.70
3550;DHT22;45572;48.804;8.330;2023-04-01T12:07:21;10.20;94.90
3550;DHT22;45572;48.804;8.330;2023-04-01T12:09:59;10.20;94.30
3550;DHT22;45572;48.804;8.330;2023-04-01T12:12:36;10.20;93.40
3550;DHT22;45572;48.804;8.330;2023-04-01T12:15:24;10.20;93.50
3550;DHT22;45572;48.804;8.330;2023-04-01T12:18:00;10.20;92.70
3550;DHT22;45572;48.804;8.330;2023-04-01T12:20:39;10.20;92.50
3550;DHT22;45572;48.804;8.330;2023-04-01T12:26:19;10.20;91.70
3550;DHT22;45572;48.804;8.330;2023-04-01T12:29:04;10.30;91.70
3550;DHT22;45572;48.804;8.330;2023-04-01T12:31:46;10.30;92.10
3550;DHT22;45572;48.804;8.330;2023-04-01T12:34:33;10.30;91.60
3550;DHT22;45572;48.804;8.330;2023-04-01T12:37:12;10.40;93.00
3550;DHT22;45572;48.804;8.330;2023-04-01T12:39:56;10.50;92.00
3550;DHT22;45572;48.804;8.330;2023-04-01T12:42:40;10.50;92.80
3550;DHT22;45572;48.804;8.330;2023-04-01T12:45:26;10.40;92.30
3550;DHT22;45572;48.804;8.330;2023-04-01T12:48:16;10.50;92.10
3550;DHT22;45572;48.804;8.330;2023-04-01T12:51:04;10.50;91.20
3550;DHT22;45572;48.804;8.330;2023-04-01T12:54:02;10.40;90.80
3550;DHT22;45572;48.804;8.330;2023-04-01T12:56:46;10.40;92.20
3550;DHT22;45572;48.804;8.330;2023-04-01T12:59:39;10.50;93.40
3550;DHT22;45572;48.804;8.330;2023-04-01T13:02:14;10.40;93.00
3550;DHT22;45572;48.804;8.330;2023-04-01T13:05:00;10.30;92.90
3550;DHT22;45572;48.804;8.330;2023-04-01T13:07:42;10.20;94.50
3550;DHT22;45572;48.804;8.330;2023-04-01T13:13:27;10.20;95.70
3550;DHT22;45572;48.804;8.330;2023-04-01T13:16:03;10.20;96.20
3550;DHT22;45572;48.804;8.330;2023-04-01T13:18:39;10.20;95.70
3550;DHT22;45572;48.804;8.330;2023-04-01T13:21:13;10.10;96.00
3550;DHT22;45572;48.804;8.330;2023-04-01T13:23:53;10.00;96.60
3550;DHT22;45572;48.804;8.330;2023-04-01T13:26:29;9.90;96.50
3550;DHT22;45572;48.804;8.330;2023-04-01T13:29:04;9.90;96.80
3550;DHT22;45572;48.804;8.330;2023-04-01T13:31:43;9.90;96.10
3550;DHT22;45572;48.804;8.330;2023-04-01T13:34:24;10.00;96.30
3550;DHT22;45572;48.804;8.330;2023-04-01T13:37:04;10.10;96.30
3550;DHT22;45572;48.804;8.330;2023-04-01T13:39:56;10.20;96.50
3550;DHT22;45572;48.804;8.330;2023-04-01T13:42:27;10.20;96.40
3550;DHT22;45572;48.804;8.330;2023-04-01T13:45:01;10.20;95.00
3550;DHT22;45572;48.804;8.330;2023-04-01T13:50:44;10.30;96.40
3550;DHT22;45572;48.804;8.330;2023-04-01T13:53:27;10.20;95.70
3550;DHT22;45572;48.804;8.330;2023-04-01T13:56:08;10.30;96.60
3550;DHT22;45572;48.804;8.330;2023-04-01T13:58:54;10.40;96.50
3550;DHT22;45572;48.804;8.330;2023-04-01T14:01:32;10.40;96.40
3550;DHT22;45572;48.804;8.330;2023-04-01T14:07:00;10.30;96.40
3550;DHT22;45572;48.804;8.330;2023-04-01T14:09:42;10.30;96.80
3550;DHT22;45572;48.804;8.330;2023-04-01T14:12:19;10.30;96.40
3550;DHT22;45572;48.804;8.330;2023-04-01T14:15:04;10.30;96.50
3550;DHT22;45572;48.804;8.330;2023-04-01T14:17:47;10.30;96.70
3550;DHT22;45572;48.804;8.330;2023-04-01T14:20:26;10.40;96.80
3550;DHT22;45572;48.804;8.330;2023-04-01T14:23:09;10.30;96.40
3550;DHT22;45572;48.804;8.330;2023-04-01T14:26:00;10.30;96.60
3550;DHT22;45572;48.804;8.330;2023-04-01T14:28:38;10.30;96.70
3550;DHT22;45572;48.804;8.330;2023-04-01T14:31:21;10.30;95.80
3550;DHT22;45572;48.804;8.330;2023-04-01T14:34:00;10.30;96.30
3550;DHT22;45572;48.804;8.330;2023-04-01T14:36:50;10.30;96.40
3550;DHT22;45572;48.804;8.330;2023-04-01T14:39:34;10.30;96.20
3550;DHT22;45572;48.804;8.330;2023-04-01T14:42:21;10.30;96.80
3550;DHT22;45572;48.804;8.330;2023-04-01T14:45:02;10.30;96.40
3550;DHT22;45572;48.804;8.330;2023-04-01T14:47:44;10.30;96.50
3550;DHT22;45572;48.804;8.330;2023-04-01T14:50:17;10.30;96.10
3550;DHT22;45572;48.804;8.330;2023-04-01T14:52:55;10.30;96.10
3550;DHT22;45572;48.804;8.330;2023-04-01T14:55:31;10.30;95.80
3550;DHT22;45572;48.804;8.330;2023-04-01T14:58:09;10.40;95.90
3550;DHT22;45572;48.804;8.330;2023-04-01T15:00:47;10.30;96.00
3550;DHT22;45572;48.804;8.330;2023-04-01T15:03:20;10.30;95.60
3550;DHT22;45572;48.804;8.330;2023-04-01T15:05:56;10.20;96.10
3550;DHT22;45572;48.804;8.330;2023-04-01T15:08:29;10.10;95.80
3550;DHT22;45572;48.804;8.330;2023-04-01T15:11:24;10.10;96.50
3550;DHT22;45572;48.804;8.330;2023-04-01T15:17:02;10.10;96.40
3550;DHT22;45572;48.804;8.330;2023-04-01T15:19:44;10.10;96.40
3550;DHT22;45572;48.804;8.330;2023-04-01T15:22:34;10.20;96.50
3550;DHT22;45572;48.804;8.330;2023-04-01T15:25:19;10.30;96.60
3550;DHT22;45572;48.804;8.330;2023-04-01T15:27:52;10.30;96.80
3550;DHT22;45572;48.804;8.330;2023-04-01T15:30:30;10.30;96.40
3550;DHT22;45572;48.804;8.330;2023-04-01T15:33:10;10.30;96.00
3550;DHT22;45572;48.804;8.330;2023-04-01T15:35:47;10.40;96.30
3550;DHT22;45572;48.804;8.330;2023-04-01T15:38:30;10.40;95.80
3550;DHT22;45572;48.804;8.330;2023-04-01T15:41:11;10.30;96.10
3550;DHT22;45572;48.804;8.330;2023-04-01T15:43:42;10.30;96.20
3550;DHT22;45572;48.804;8.330;2023-04-01T15:46:30;10.20;96.30
3550;DHT22;45572;48.804;8.330;2023-04-01T15:49:15;10.20;96.10
3550;DHT22;45572;48.804;8.330;2023-04-01T15:51:53;10.30;96.80
3550;DHT22;45572;48.804;8.330;2023-04-01T15:54:38;10.30;96.40
3550;DHT22;45572;48.804;8.330;2023-04-01T15:57:16;10.40;96.30
3550;DHT22;45572;48.804;8.330;2023-04-01T15:59:56;10.50;96.50
3550;DHT22;45572;48.804;8.330;2023-04-01T16:05:49;10.60;95.80
3550;DHT22;45572;48.804;8.330;2023-04-01T16:08:36;10.80;96.10
3550;DHT22;45572;48.804;8.330;2023-04-01T16:11:17;10.80;95.50
3550;DHT22;45572;48.804;8.330;2023-04-01T16:13:59;10.80;94.50
3550;DHT22;45572;48.804;8.330;2023-04-01T16:16:53;10.80;94.70
3550;DHT22;45572;48.804;8.330;2023-04-01T16:19:39;10.70;94.20
3550;DHT22;45572;48.804;8.330;2023-04-01T16:22:13;10.70;94.10
3550;DHT22;45572;48.804;8.330;2023-04-01T16:24:45;10.70;94.60
3550;DHT22;45572;48.804;8.330;2023-04-01T16:27:18;10.60;93.60
3550;DHT22;45572;48.804;8.330;2023-04-01T16:29:57;10.70;94.40
3550;DHT22;45572;48.804;8.330;2023-04-01T16:32:37;10.70;94.40
3550;DHT22;45572;48.804;8.330;2023-04-01T16:35:25;10.70;94.10
3550;DHT22;45572;48.804;8.330;2023-04-01T16:38:01;10.60;93.60
3550;DHT22;45572;48.804;8.330;2023-04-01T16:40:42;10.60;94.60
3550;DHT22;45572;48.804;8.330;2023-04-01T16:43:16;10.50;94.80
3550;DHT22;45572;48.804;8.330;2023-04-01T16:45:55;10.40;95.00
3550;DHT22;45572;48.804;8.330;2023-04-01T16:48:30;10.30;94.70
3550;DHT22;45572;48.804;8.330;2023-04-01T16:51:07;10.30;95.10
3550;DHT22;45572;48.804;8.330;2023-04-01T16:53:42;10.20;94.10
3550;DHT22;45572;48.804;8.330;2023-04-01T16:56:15;10.30;95.20
3550;DHT22;45572;48.804;8.330;2023-04-01T16:58:55;10.30;96.50
3550;DHT22;45572;48.804;8.330;2023-04-01T17:01:28;10.40;96.70
3550;DHT22;45572;48.804;8.330;2023-04-01T17:04:06;10.30;96.80
3550;DHT22;45572;48.804;8.330;2023-04-01T17:06:45;10.30;96.80
3550;DHT22;45572;48.804;8.330;2023-04-01T17:09:29;10.30;96.80
3550;DHT22;45572;48.804;8.330;2023-04-01T17:12:05;10.20;96.80
3550;DHT22;45572;48.804;8.330;2023-04-01T17:14:44;10.10;96.80
3550;DHT22;45572;48.804;8.330;2023-04-01T17:17:20;10.00;96.80
3550;DHT22;45572;48.804;8.330;2023-04-01T17:22:49;9.90;96.80
3550;DHT22;45572;48.804;8.330;2023-04-01T17:25:31;9.90;96.80
3550;DHT22;45572;48.804;8.330;2023-04-01T17:28:10;9.90;96.80
3550;DHT22;45572;48.804;8.330;2023-04-01T17:30:50;9.90;96.80
3550;DHT22;45572;48.804;8.330;2023-04-01T17:33:42;9.80;96.80
3550;DHT22;45572;48.804;8.330;2023-04-01T17:36:25;9.70;96.80
3550;DHT22;45572;48.804;8.330;2023-04-01T17:39:18;9.70;96.70
3550;DHT22;45572;48.804;8.330;2023-04-01T17:41:51;9.70;96.60
3550;DHT22;45572;48.804;8.330;2023-04-01T17:44:32;9.70;96.70
3550;DHT22;45572;48.804;8.330;2023-04-01T17:47:12;9.70;96.10